sensor_id;sensor_type;location;lat;lon;timestamp;pressure;altitude;pressure_sealevel;temperature;humidity
25232;BME280;13176;51.140;6.290;2023-02-20T00:00:33;101985.59;;;9.68;82.84
25232;BME280;13176;51.140;6.290;2023-02-20T00:03:00;101899.16;;;9.25;82.97
25232;BME280;13176;51.140;6.290;2023-02-20T00:05:27;101875.63;;;9.16;82.18
25232;BME280;13176;51.140;6.290;2023-02-20T00:07:53;101934.13;;;9.48;82.22
25232;BME280;13176;51.140;6.290;2023-02-20T00:10:19;101956.03;;;9.65;82.46
25232;BME280;13176;51.140;6.290;2023-02-20T00:12:53;101875.75;;;9.26;82.09
25232;BME280;13176;51.140;6.290;2023-02-20T00:15:20;101890.63;;;9.38;81.70
25232;BME280;13176;51.140;6.290;2023-02-20T00:17:47;101855.78;;;9.27;81.34
25232;BME280;13176;51.140;6.290;2023-02-20T00:20:19;101803.19;;;8.79;82.33
25232;BME280;13176;51.140;6.290;2023-02-20T00:22:47;101881.75;;;9.21;82.08
25232;BME280;13176;51.140;6.290;2023-02-20T00:25:20;101966.50;;;9.69;82.53
25232;BME280;13176;51.140;6.290;2023-02-20T00:27:46;101953.34;;;9.59;82.39
25232;BME280;13176;51.140;6.290;2023-02-20T00:30:21;101916.69;;;9.38;83.31
25232;BME280;13176;51.140;6.290;2023-02-20T00:32:51;101956.75;;;9.52;84.38
25232;BME280;13176;51.140;6.290;2023-02-20T00:35:18;101919.34;;;9.44;82.80
25232;BME280;13176;51.140;6.290;2023-02-20T00:37:49;101916.75;;;9.47;83.02
25232;BME280;13176;51.140;6.290;2023-02-20T00:40:17;101860.78;;;9.06;82.95
25232;BME280;13176;51.140;6.290;2023-02-20T00:42:45;101965.66;;;9.72;83.03
25232;BME280;13176;51.140;6.290;2023-02-20T00:45:13;101952.72;;;9.81;82.28
25232;BME280;13176;51.140;6.290;2023-02-20T00:47:40;101937.69;;;9.56;82.73
25232;BME280;13176;51.140;6.290;2023-02-20T00:50:07;101947.41;;;9.70;82.90
25232;BME280;13176;51.140;6.290;2023-02-20T00:52:34;101825.19;;;9.06;82.84
25232;BME280;13176;51.140;6.290;2023-02-20T00:55:02;101813.97;;;9.09;82.28
25232;BME280;13176;51.140;6.290;2023-02-20T00:57:28;101884.75;;;9.58;81.34
25232;BME280;13176;51.140;6.290;2023-02-20T00:59:55;101855.84;;;9.33;82.10
25232;BME280;13176;51.140;6.290;2023-02-20T01:02:22;101922.34;;;9.84;82.03
25232;BME280;13176;51.140;6.290;2023-02-20T01:04:48;101900.47;;;9.64;82.34
25232;BME280;13176;51.140;6.290;2023-02-20T01:07:15;101897.09;;;9.77;81.70
25232;BME280;13176;51.140;6.290;2023-02-20T01:09:41;101778.31;;;9.03;82.67
25232;BME280;13176;51.140;6.290;2023-02-20T01:12:08;101748.81;;;9.03;81.48
25232;BME280;13176;51.140;6.290;2023-02-20T01:14:38;101887.59;;;9.87;81.40
25232;BME280;13176;51.140;6.290;2023-02-20T01:17:08;101810.63;;;9.25;81.72
25232;BME280;13176;51.140;6.290;2023-02-20T01:19:38;101891.00;;;9.77;81.16
25232;BME280;13176;51.140;6.290;2023-02-20T01:22:04;101856.03;;;9.54;81.36
25232;BME280;13176;51.140;6.290;2023-02-20T01:24:34;101899.81;;;9.92;80.94
25232;BME280;13176;51.140;6.290;2023-02-20T01:27:00;101857.97;;;9.73;81.33
25232;BME280;13176;51.140;6.290;2023-02-20T01:29:27;101775.88;;;9.20;81.10
25232;BME280;13176;51.140;6.290;2023-02-20T01:31:53;101885.91;;;9.92;80.65
25232;BME280;13176;51.140;6.290;2023-02-20T01:34:20;101724.53;;;9.05;80.78
25232;BME280;13176;51.140;6.290;2023-02-20T01:36:51;101737.66;;;9.17;80.55
25232;BME280;13176;51.140;6.290;2023-02-20T01:39:42;101816.06;;;9.52;80.55
25232;BME280;13176;51.140;6.290;2023-02-20T01:42:12;101871.84;;;9.72;81.04
25232;BME280;13176;51.140;6.290;2023-02-20T01:44:40;101811.56;;;9.28;81.57
25232;BME280;13176;51.140;6.290;2023-02-20T01:47:09;101851.03;;;9.75;80.62
25232;BME280;13176;51.140;6.290;2023-02-20T01:50:00;101828.75;;;9.14;82.85
25232;BME280;13176;51.140;6.290;2023-02-20T01:52:33;101873.41;;;9.55;82.90
25232;BME280;13176;51.140;6.290;2023-02-20T01:55:17;101868.28;;;9.61;82.48
25232;BME280;13176;51.140;6.290;2023-02-20T01:57:56;101885.78;;;9.74;82.44
25232;BME280;13176;51.140;6.290;2023-02-20T02:00:24;101856.69;;;9.27;83.49
25232;BME280;13176;51.140;6.290;2023-02-20T02:02:57;101840.41;;;9.54;82.52
25232;BME280;13176;51.140;6.290;2023-02-20T02:05:27;101761.53;;;8.75;83.02
25232;BME280;13176;51.140;6.290;2023-02-20T02:07:55;101667.66;;;8.52;82.39
25232;BME280;13176;51.140;6.290;2023-02-20T02:10:28;101822.78;;;9.26;83.44
25232;BME280;13176;51.140;6.290;2023-02-20T02:12:58;101713.03;;;8.81;81.81
25232;BME280;13176;51.140;6.290;2023-02-20T02:15:25;101727.72;;;8.75;83.73
25232;BME280;13176;51.140;6.290;2023-02-20T02:18:22;101849.16;;;9.60;83.13
25232;BME280;13176;51.140;6.290;2023-02-20T02:21:25;101848.25;;;9.57;83.45
25232;BME280;13176;51.140;6.290;2023-02-20T02:27:25;101789.69;;;9.10;84.38
25232;BME280;13176;51.140;6.290;2023-02-20T02:33:01;101817.78;;;9.50;84.09
25232;BME280;13176;51.140;6.290;2023-02-20T02:35:48;101810.91;;;9.58;83.26
25232;BME280;13176;51.140;6.290;2023-02-20T02:39:01;101809.22;;;9.63;83.34
25232;BME280;13176;51.140;6.290;2023-02-20T02:41:53;101808.16;;;9.37;84.35
25232;BME280;13176;51.140;6.290;2023-02-20T02:44:39;101725.47;;;9.15;82.96
25232;BME280;13176;51.140;6.290;2023-02-20T02:47:20;101803.03;;;9.46;82.74
25232;BME280;13176;51.140;6.290;2023-02-20T02:52:21;101781.41;;;9.59;82.33
25232;BME280;13176;51.140;6.290;2023-02-20T02:55:07;101686.25;;;8.96;82.18
25232;BME280;13176;51.140;6.290;2023-02-20T02:57:34;101769.09;;;9.37;82.60
25232;BME280;13176;51.140;6.290;2023-02-20T03:00:08;101803.94;;;9.54;82.75
25232;BME280;13176;51.140;6.290;2023-02-20T03:06:11;101790.78;;;9.37;83.74
25232;BME280;13176;51.140;6.290;2023-02-20T03:08:49;101779.25;;;9.10;84.38
25232;BME280;13176;51.140;6.290;2023-02-20T03:11:25;101793.44;;;9.42;83.85
25232;BME280;13176;51.140;6.290;2023-02-20T03:13:58;101770.69;;;9.21;83.38
25232;BME280;13176;51.140;6.290;2023-02-20T03:19:43;101763.94;;;9.47;81.96
25232;BME280;13176;51.140;6.290;2023-02-20T03:24:52;101750.81;;;9.34;81.80
25232;BME280;13176;51.140;6.290;2023-02-20T03:27:41;101772.50;;;9.30;83.29
25232;BME280;13176;51.140;6.290;2023-02-20T03:30:11;101770.09;;;9.55;82.22
25232;BME280;13176;51.140;6.290;2023-02-20T03:32:40;101654.09;;;8.86;82.19
25232;BME280;13176;51.140;6.290;2023-02-20T03:35:29;101701.16;;;9.13;82.58
25232;BME280;13176;51.140;6.290;2023-02-20T03:38:17;101711.56;;;9.07;83.24
25232;BME280;13176;51.140;6.290;2023-02-20T03:41:06;101727.28;;;9.22;82.90
25232;BME280;13176;51.140;6.290;2023-02-20T03:44:03;101645.44;;;8.87;82.97
25232;BME280;13176;51.140;6.290;2023-02-20T03:46:32;101608.63;;;8.45;83.35
25232;BME280;13176;51.140;6.290;2023-02-20T03:49:11;101652.94;;;8.56;84.14
25232;BME280;13176;51.140;6.290;2023-02-20T03:51:40;101571.03;;;8.13;83.28
25232;BME280;13176;51.140;6.290;2023-02-20T03:54:07;101773.34;;;9.27;83.45
25232;BME280;13176;51.140;6.290;2023-02-20T03:56:44;101643.13;;;8.26;84.35
25232;BME280;13176;51.140;6.290;2023-02-20T03:59:24;101631.09;;;8.40;84.50
25232;BME280;13176;51.140;6.290;2023-02-20T04:01:56;101736.88;;;9.30;82.92
25232;BME280;13176;51.140;6.290;2023-02-20T04:04:37;101764.81;;;9.45;83.28
25232;BME280;13176;51.140;6.290;2023-02-20T04:07:09;101746.44;;;9.30;82.90
25232;BME280;13176;51.140;6.290;2023-02-20T04:09:40;101757.56;;;9.12;85.19
25232;BME280;13176;51.140;6.290;2023-02-20T04:12:29;101632.13;;;8.53;84.77
25232;BME280;13176;51.140;6.290;2023-02-20T04:14:58;101662.66;;;8.75;84.73
25232;BME280;13176;51.140;6.290;2023-02-20T04:17:31;101749.19;;;9.45;83.41
25232;BME280;13176;51.140;6.290;2023-02-20T04:20:01;101627.13;;;8.77;83.15
25232;BME280;13176;51.140;6.290;2023-02-20T04:22:30;101694.22;;;9.15;82.94
25232;BME280;13176;51.140;6.290;2023-02-20T04:25:15;101709.97;;;9.27;82.46
25232;BME280;13176;51.140;6.290;2023-02-20T04:27:44;101718.44;;;9.02;83.47
25232;BME280;13176;51.140;6.290;2023-02-20T04:30:11;101651.22;;;8.58;84.24
25232;BME280;13176;51.140;6.290;2023-02-20T04:32:38;101746.34;;;9.21;84.01
25232;BME280;13176;51.140;6.290;2023-02-20T04:35:04;101752.47;;;9.23;84.23
25232;BME280;13176;51.140;6.290;2023-02-20T04:37:31;101732.19;;;8.89;85.49
25232;BME280;13176;51.140;6.290;2023-02-20T04:39:58;101746.34;;;9.21;83.88
25232;BME280;13176;51.140;6.290;2023-02-20T04:42:24;101765.44;;;9.20;84.64
25232;BME280;13176;51.140;6.290;2023-02-20T04:44:50;101742.75;;;9.04;84.58
25232;BME280;13176;51.140;6.290;2023-02-20T04:47:17;101749.72;;;9.11;84.25
25232;BME280;13176;51.140;6.290;2023-02-20T04:49:44;101640.63;;;8.35;84.96
25232;BME280;13176;51.140;6.290;2023-02-20T04:52:10;101737.44;;;8.92;85.46
25232;BME280;13176;51.140;6.290;2023-02-20T04:54:37;101514.69;;;7.32;86.14
25232;BME280;13176;51.140;6.290;2023-02-20T04:57:03;101730.50;;;8.94;84.80
25232;BME280;13176;51.140;6.290;2023-02-20T04:59:29;101622.22;;;8.17;85.81
25232;BME280;13176;51.140;6.290;2023-02-20T05:01:56;101646.31;;;8.07;86.51
25232;BME280;13176;51.140;6.290;2023-02-20T05:04:27;101588.13;;;7.92;85.87
25232;BME280;13176;51.140;6.290;2023-02-20T05:06:54;101706.88;;;8.72;84.96
25232;BME280;13176;51.140;6.290;2023-02-20T05:09:21;101674.47;;;8.41;85.88
25232;BME280;13176;51.140;6.290;2023-02-20T05:11:48;101678.06;;;8.52;85.26
25232;BME280;13176;51.140;6.290;2023-02-20T05:14:15;101636.97;;;8.20;85.63
25232;BME280;13176;51.140;6.290;2023-02-20T05:16:41;101624.16;;;8.39;83.65
25232;BME280;13176;51.140;6.290;2023-02-20T05:19:12;101760.00;;;8.93;84.93
25232;BME280;13176;51.140;6.290;2023-02-20T05:21:45;101704.19;;;8.64;85.70
25232;BME280;13176;51.140;6.290;2023-02-20T05:24:30;101749.56;;;8.90;85.65
25232;BME280;13176;51.140;6.290;2023-02-20T05:26:58;101634.50;;;8.30;84.56
25232;BME280;13176;51.140;6.290;2023-02-20T05:29:24;101759.22;;;9.04;85.60
25232;BME280;13176;51.140;6.290;2023-02-20T05:31:51;101617.84;;;8.15;85.82
25232;BME280;13176;51.140;6.290;2023-02-20T05:34:17;101732.28;;;8.98;85.11
25232;BME280;13176;51.140;6.290;2023-02-20T05:36:46;101494.81;;;7.36;86.60
25232;BME280;13176;51.140;6.290;2023-02-20T05:39:13;101741.56;;;8.75;86.26
25232;BME280;13176;51.140;6.290;2023-02-20T05:41:39;101699.00;;;8.64;86.52
25232;BME280;13176;51.140;6.290;2023-02-20T05:44:06;101496.66;;;7.43;86.27
25232;BME280;13176;51.140;6.290;2023-02-20T05:46:38;101626.50;;;8.14;86.37
25232;BME280;13176;51.140;6.290;2023-02-20T05:49:05;101624.00;;;8.21;86.01
25232;BME280;13176;51.140;6.290;2023-02-20T05:51:34;101639.22;;;7.91;87.36
25232;BME280;13176;51.140;6.290;2023-02-20T05:54:02;101691.09;;;8.54;86.87
25232;BME280;13176;51.140;6.290;2023-02-20T05:56:29;101735.34;;;8.58;88.22
25232;BME280;13176;51.140;6.290;2023-02-20T05:58:58;101750.31;;;8.80;87.55
25232;BME280;13176;51.140;6.290;2023-02-20T06:01:29;101597.84;;;8.09;86.46
25232;BME280;13176;51.140;6.290;2023-02-20T06:03:56;101646.66;;;8.31;86.22
25232;BME280;13176;51.140;6.290;2023-02-20T06:06:23;101648.38;;;8.32;86.53
25232;BME280;13176;51.140;6.290;2023-02-20T06:08:49;101608.81;;;7.86;87.29
25232;BME280;13176;51.140;6.290;2023-02-20T06:11:16;101605.75;;;8.18;85.92
25232;BME280;13176;51.140;6.290;2023-02-20T06:13:47;101611.59;;;7.99;87.36
25232;BME280;13176;51.140;6.290;2023-02-20T06:16:21;101599.09;;;7.69;88.48
25232;BME280;13176;51.140;6.290;2023-02-20T06:18:48;101576.78;;;7.86;87.38
25232;BME280;13176;51.140;6.290;2023-02-20T06:21:14;101697.41;;;8.81;85.81
25232;BME280;13176;51.140;6.290;2023-02-20T06:23:42;101737.47;;;8.97;86.42
25232;BME280;13176;51.140;6.290;2023-02-20T06:26:11;101719.97;;;8.82;85.69
25232;BME280;13176;51.140;6.290;2023-02-20T06:28:39;101709.13;;;8.40;87.48
25232;BME280;13176;51.140;6.290;2023-02-20T06:31:07;101607.31;;;8.03;86.53
25232;BME280;13176;51.140;6.290;2023-02-20T06:33:35;101764.38;;;8.97;86.51
25232;BME280;13176;51.140;6.290;2023-02-20T06:36:04;101718.53;;;8.31;87.28
25232;BME280;13176;51.140;6.290;2023-02-20T06:38:31;101724.88;;;8.51;86.41
25232;BME280;13176;51.140;6.290;2023-02-20T06:40:57;101641.69;;;7.84;87.68
25232;BME280;13176;51.140;6.290;2023-02-20T06:43:24;101570.72;;;7.17;87.95
25232;BME280;13176;51.140;6.290;2023-02-20T06:45:50;101561.59;;;7.47;87.41
25232;BME280;13176;51.140;6.290;2023-02-20T06:48:16;101721.31;;;8.44;87.18
25232;BME280;13176;51.140;6.290;2023-02-20T06:50:52;101710.16;;;8.54;86.24
25232;BME280;13176;51.140;6.290;2023-02-20T06:53:21;101679.78;;;8.53;85.61
25232;BME280;13176;51.140;6.290;2023-02-20T06:55:48;101622.84;;;7.98;85.51
25232;BME280;13176;51.140;6.290;2023-02-20T06:58:14;101682.16;;;8.31;86.25
25232;BME280;13176;51.140;6.290;2023-02-20T07:00:41;101534.66;;;7.38;85.95
25232;BME280;13176;51.140;6.290;2023-02-20T07:03:07;101635.88;;;8.04;86.08
25232;BME280;13176;51.140;6.290;2023-02-20T07:05:34;101673.19;;;8.08;86.10
25232;BME280;13176;51.140;6.290;2023-02-20T07:08:00;101654.19;;;8.13;86.28
25232;BME280;13176;51.140;6.290;2023-02-20T07:10:26;101625.44;;;8.01;85.78
25232;BME280;13176;51.140;6.290;2023-02-20T07:12:53;101496.72;;;7.49;84.24
25232;BME280;13176;51.140;6.290;2023-02-20T07:15:19;101606.94;;;7.75;85.62
25232;BME280;13176;51.140;6.290;2023-02-20T07:17:46;101717.91;;;8.51;86.14
25232;BME280;13176;51.140;6.290;2023-02-20T07:20:13;101615.13;;;8.07;85.60
25232;BME280;13176;51.140;6.290;2023-02-20T07:22:49;101784.34;;;8.98;85.22
25232;BME280;13176;51.140;6.290;2023-02-20T07:25:16;101723.13;;;8.51;85.79
25232;BME280;13176;51.140;6.290;2023-02-20T07:27:48;101619.44;;;8.04;85.43
25232;BME280;13176;51.140;6.290;2023-02-20T07:30:18;101603.06;;;8.12;84.53
25232;BME280;13176;51.140;6.290;2023-02-20T07:32:45;101615.06;;;7.98;85.16
25232;BME280;13176;51.140;6.290;2023-02-20T07:35:11;101664.88;;;8.34;85.25
25232;BME280;13176;51.140;6.290;2023-02-20T07:37:43;101619.91;;;7.72;85.62
25232;BME280;13176;51.140;6.290;2023-02-20T07:40:11;101667.25;;;8.16;85.83
25232;BME280;13176;51.140;6.290;2023-02-20T07:42:38;101712.56;;;8.39;86.07
25232;BME280;13176;51.140;6.290;2023-02-20T07:45:31;101800.88;;;9.04;85.01
25232;BME280;13176;51.140;6.290;2023-02-20T07:47:58;101672.59;;;8.28;85.10
25232;BME280;13176;51.140;6.290;2023-02-20T07:50:24;101682.69;;;8.82;84.00
25232;BME280;13176;51.140;6.290;2023-02-20T07:52:51;101700.03;;;8.84;83.42
25232;BME280;13176;51.140;6.290;2023-02-20T07:55:18;101580.28;;;7.89;85.07
25232;BME280;13176;51.140;6.290;2023-02-20T07:57:48;101798.44;;;9.21;83.76
25232;BME280;13176;51.140;6.290;2023-02-20T08:00:17;101784.78;;;9.46;83.05
25232;BME280;13176;51.140;6.290;2023-02-20T08:02:45;101640.59;;;8.32;83.93
25232;BME280;13176;51.140;6.290;2023-02-20T08:05:11;101765.69;;;9.44;82.65
25232;BME280;13176;51.140;6.290;2023-02-20T08:07:43;101783.03;;;9.48;82.27
25232;BME280;13176;51.140;6.290;2023-02-20T08:10:10;101698.06;;;8.59;83.54
25232;BME280;13176;51.140;6.290;2023-02-20T08:12:36;101573.69;;;8.16;83.76
25232;BME280;13176;51.140;6.290;2023-02-20T08:15:03;101665.94;;;8.54;84.40
25232;BME280;13176;51.140;6.290;2023-02-20T08:17:30;101656.03;;;8.19;84.46
25232;BME280;13176;51.140;6.290;2023-02-20T08:20:11;101769.72;;;9.15;84.83
25232;BME280;13176;51.140;6.290;2023-02-20T08:22:38;101770.97;;;9.56;83.26
25232;BME280;13176;51.140;6.290;2023-02-20T08:25:07;101694.75;;;8.75;83.16
25232;BME280;13176;51.140;6.290;2023-02-20T08:27:34;101785.44;;;9.24;83.96
25232;BME280;13176;51.140;6.290;2023-02-20T08:30:07;101680.06;;;8.80;83.22
25232;BME280;13176;51.140;6.290;2023-02-20T08:32:35;101625.66;;;8.16;84.81
25232;BME280;13176;51.140;6.290;2023-02-20T08:35:02;101575.34;;;8.11;83.88
25232;BME280;13176;51.140;6.290;2023-02-20T08:37:29;101620.50;;;8.19;84.83
25232;BME280;13176;51.140;6.290;2023-02-20T08:39:56;101603.38;;;8.39;83.87
25232;BME280;13176;51.140;6.290;2023-02-20T08:42:23;101636.56;;;8.64;82.90
25232;BME280;13176;51.140;6.290;2023-02-20T08:44:50;101508.53;;;7.98;83.04
25232;BME280;13176;51.140;6.290;2023-02-20T08:47:22;101700.81;;;8.71;84.35
25232;BME280;13176;51.140;6.290;2023-02-20T08:49:48;101763.88;;;9.37;82.86
25232;BME280;13176;51.140;6.290;2023-02-20T08:52:15;101598.66;;;8.96;81.14
25232;BME280;13176;51.140;6.290;2023-02-20T08:54:48;101744.94;;;9.59;82.16
25232;BME280;13176;51.140;6.290;2023-02-20T08:57:16;101707.28;;;9.16;83.05
25232;BME280;13176;51.140;6.290;2023-02-20T08:59:43;101683.47;;;8.76;84.34
25232;BME280;13176;51.140;6.290;2023-02-20T09:02:21;101753.44;;;9.34;84.35
25232;BME280;13176;51.140;6.290;2023-02-20T09:04:52;101720.47;;;9.36;83.26
25232;BME280;13176;51.140;6.290;2023-02-20T09:07:19;101678.91;;;9.57;82.15
25232;BME280;13176;51.140;6.290;2023-02-20T09:09:46;101544.69;;;8.68;82.08
25232;BME280;13176;51.140;6.290;2023-02-20T09:12:13;101635.16;;;9.06;81.88
25232;BME280;13176;51.140;6.290;2023-02-20T09:14:39;101658.63;;;9.08;83.20
25232;BME280;13176;51.140;6.290;2023-02-20T09:17:06;101734.38;;;9.38;83.53
25232;BME280;13176;51.140;6.290;2023-02-20T09:19:32;101644.00;;;9.28;82.19
25232;BME280;13176;51.140;6.290;2023-02-20T09:21:59;101765.06;;;9.84;83.08
25232;BME280;13176;51.140;6.290;2023-02-20T09:24:26;101781.53;;;9.74;83.32
25232;BME280;13176;51.140;6.290;2023-02-20T09:27:03;101621.47;;;9.33;81.23
25232;BME280;13176;51.140;6.290;2023-02-20T09:29:31;101736.50;;;9.99;81.20
25232;BME280;13176;51.140;6.290;2023-02-20T09:31:57;101729.44;;;9.77;81.45
25232;BME280;13176;51.140;6.290;2023-02-20T09:34:24;101737.94;;;9.55;82.23
25232;BME280;13176;51.140;6.290;2023-02-20T09:36:51;101750.16;;;9.62;83.26
25232;BME280;13176;51.140;6.290;2023-02-20T09:39:20;101747.72;;;9.87;81.93
25232;BME280;13176;51.140;6.290;2023-02-20T09:42:14;101776.59;;;10.13;81.21
25232;BME280;13176;51.140;6.290;2023-02-20T09:45:09;101786.81;;;9.87;82.89
25232;BME280;13176;51.140;6.290;2023-02-20T09:50:54;101645.94;;;9.62;80.49
25232;BME280;13176;51.140;6.290;2023-02-20T09:53:31;101776.69;;;10.33;80.96
25232;BME280;13176;51.140;6.290;2023-02-20T09:56:00;101642.53;;;9.75;79.46
25232;BME280;13176;51.140;6.290;2023-02-20T09:58:56;101640.41;;;9.08;82.81
25232;BME280;13176;51.140;6.290;2023-02-20T10:01:27;101764.56;;;10.47;80.83
25232;BME280;13176;51.140;6.290;2023-02-20T10:04:03;101595.44;;;9.36;80.87
25232;BME280;13176;51.140;6.290;2023-02-20T10:06:33;101740.97;;;10.19;80.56
25232;BME280;13176;51.140;6.290;2023-02-20T10:09:02;101713.97;;;10.04;81.02
25232;BME280;13176;51.140;6.290;2023-02-20T10:14:42;101762.66;;;10.11;81.42
25232;BME280;13176;51.140;6.290;2023-02-20T10:17:49;101724.50;;;10.26;80.20
25232;BME280;13176;51.140;6.290;2023-02-20T10:20:53;101760.28;;;10.70;79.26
25232;BME280;13176;51.140;6.290;2023-02-20T10:23:51;101669.72;;;10.30;79.42
25232;BME280;13176;51.140;6.290;2023-02-20T10:26:36;101602.63;;;9.82;78.99
25232;BME280;13176;51.140;6.290;2023-02-20T10:29:19;101703.53;;;10.04;80.77
25232;BME280;13176;51.140;6.290;2023-02-20T10:32:13;101659.97;;;9.88;79.44
25232;BME280;13176;51.140;6.290;2023-02-20T10:34:56;101726.25;;;10.31;79.56
25232;BME280;13176;51.140;6.290;2023-02-20T10:37:27;101774.94;;;10.32;81.23
25232;BME280;13176;51.140;6.290;2023-02-20T10:40:24;101770.69;;;10.61;80.35
25232;BME280;13176;51.140;6.290;2023-02-20T10:45:51;101767.94;;;10.17;82.07
25232;BME280;13176;51.140;6.290;2023-02-20T10:48:23;101757.63;;;10.58;80.45
25232;BME280;13176;51.140;6.290;2023-02-20T10:56:59;101750.69;;;10.57;80.64
25232;BME280;13176;51.140;6.290;2023-02-20T11:03:05;101742.00;;;10.67;79.42
25232;BME280;13176;51.140;6.290;2023-02-20T11:05:42;101541.66;;;9.50;79.87
25232;BME280;13176;51.140;6.290;2023-02-20T11:08:13;101547.78;;;9.58;80.28
25232;BME280;13176;51.140;6.290;2023-02-20T11:10:53;101644.53;;;10.41;78.72
25232;BME280;13176;51.140;6.290;2023-02-20T11:13:23;101620.16;;;10.33;79.26
25232;BME280;13176;51.140;6.290;2023-02-20T11:15:53;101727.25;;;10.75;79.46
25232;BME280;13176;51.140;6.290;2023-02-20T11:18:40;101743.78;;;10.77;79.93
25232;BME280;13176;51.140;6.290;2023-02-20T11:21:09;101751.63;;;10.80;78.91
25232;BME280;13176;51.140;6.290;2023-02-20T11:24:45;101721.13;;;10.55;79.94
25232;BME280;13176;51.140;6.290;2023-02-20T11:30:11;101747.22;;;10.55;81.38
25232;BME280;13176;51.140;6.290;2023-02-20T11:32:42;101677.50;;;10.10;81.07
25232;BME280;13176;51.140;6.290;2023-02-20T11:36:13;101720.22;;;10.59;81.01
25232;BME280;13176;51.140;6.290;2023-02-20T11:38:55;101537.41;;;9.74;80.37
25232;BME280;13176;51.140;6.290;2023-02-20T11:41:25;101533.03;;;9.60;80.09
25232;BME280;13176;51.140;6.290;2023-02-20T11:44:07;101621.88;;;10.22;80.42
25232;BME280;13176;51.140;6.290;2023-02-20T11:46:41;101458.31;;;9.50;78.50
25232;BME280;13176;51.140;6.290;2023-02-20T11:49:11;101520.88;;;9.59;80.00
25232;BME280;13176;51.140;6.290;2023-02-20T11:51:48;101550.59;;;10.09;79.49
25232;BME280;13176;51.140;6.290;2023-02-20T11:54:24;101665.47;;;10.83;79.01
25232;BME280;13176;51.140;6.290;2023-02-20T11:57:00;101706.41;;;10.90;80.20
25232;BME280;13176;51.140;6.290;2023-02-20T11:59:43;101645.38;;;10.24;80.84
25232;BME280;13176;51.140;6.290;2023-02-20T12:04:45;101670.66;;;10.62;80.71
25232;BME280;13176;51.140;6.290;2023-02-20T12:07:34;101622.75;;;10.20;80.88
25232;BME280;13176;51.140;6.290;2023-02-20T12:10:28;101700.28;;;11.00;80.47
25232;BME280;13176;51.140;6.290;2023-02-20T12:12:56;101699.44;;;10.89;80.84
25232;BME280;13176;51.140;6.290;2023-02-20T12:15:25;101639.31;;;10.35;81.36
25232;BME280;13176;51.140;6.290;2023-02-20T12:20:40;101446.84;;;8.99;82.62
25232;BME280;13176;51.140;6.290;2023-02-20T12:23:20;101509.66;;;9.87;80.76
25232;BME280;13176;51.140;6.290;2023-02-20T12:31:34;101695.91;;;10.54;83.30
25232;BME280;13176;51.140;6.290;2023-02-20T12:37:03;101625.44;;;10.78;80.96
25232;BME280;13176;51.140;6.290;2023-02-20T12:42:39;101668.97;;;10.90;82.15
25232;BME280;13176;51.140;6.290;2023-02-20T12:45:18;101602.72;;;10.03;83.78
25232;BME280;13176;51.140;6.290;2023-02-20T12:47:51;101479.16;;;9.44;83.68
25232;BME280;13176;51.140;6.290;2023-02-20T12:53:23;101521.06;;;10.16;81.71
25232;BME280;13176;51.140;6.290;2023-02-20T12:59:15;101675.94;;;10.86;83.14
25232;BME280;13176;51.140;6.290;2023-02-20T13:01:47;101655.03;;;11.04;82.20
25232;BME280;13176;51.140;6.290;2023-02-20T13:04:25;101658.50;;;10.79;83.62
25232;BME280;13176;51.140;6.290;2023-02-20T13:07:13;101543.63;;;10.22;83.93
25232;BME280;13176;51.140;6.290;2023-02-20T13:12:23;101626.31;;;10.85;82.68
25232;BME280;13176;51.140;6.290;2023-02-20T13:18:01;101643.69;;;11.19;82.24
25232;BME280;13176;51.140;6.290;2023-02-20T13:20:39;101624.56;;;11.08;82.40
25232;BME280;13176;51.140;6.290;2023-02-20T13:25:47;101611.44;;;11.33;80.94
25232;BME280;13176;51.140;6.290;2023-02-20T13:31:15;101614.91;;;11.59;80.87
25232;BME280;13176;51.140;6.290;2023-02-20T13:33:46;101512.28;;;10.94;80.76
25232;BME280;13176;51.140;6.290;2023-02-20T13:36:37;101516.66;;;10.97;81.13
25232;BME280;13176;51.140;6.290;2023-02-20T13:49:54;101524.50;;;10.86;84.30
25232;BME280;13176;51.140;6.290;2023-02-20T13:55:29;101474.03;;;10.84;83.74
25232;BME280;13176;51.140;6.290;2023-02-20T13:58:10;101393.22;;;10.44;82.88
25232;BME280;13176;51.140;6.290;2023-02-20T14:00:53;101529.63;;;11.22;83.49
25232;BME280;13176;51.140;6.290;2023-02-20T14:03:25;101507.88;;;11.23;82.38
25232;BME280;13176;51.140;6.290;2023-02-20T14:06:11;101524.31;;;11.46;82.14
25232;BME280;13176;51.140;6.290;2023-02-20T14:08:40;101475.69;;;11.09;82.85
25232;BME280;13176;51.140;6.290;2023-02-20T14:13:36;101449.69;;;10.70;84.61
25232;BME280;13176;51.140;6.290;2023-02-20T14:16:39;101491.38;;;11.03;84.58
25232;BME280;13176;51.140;6.290;2023-02-20T14:19:18;101470.44;;;11.15;84.08
25232;BME280;13176;51.140;6.290;2023-02-20T14:21:46;101364.47;;;10.59;83.10
25232;BME280;13176;51.140;6.290;2023-02-20T14:24:34;101421.72;;;11.08;82.02
25232;BME280;13176;51.140;6.290;2023-02-20T14:27:29;101459.13;;;11.13;82.63
25232;BME280;13176;51.140;6.290;2023-02-20T14:32:29;101409.56;;;10.95;81.62
25232;BME280;13176;51.140;6.290;2023-02-20T14:37:47;101524.31;;;11.43;81.80
25232;BME280;13176;51.140;6.290;2023-02-20T14:40:28;101503.44;;;11.40;81.43
25232;BME280;13176;51.140;6.290;2023-02-20T14:43:01;101525.97;;;11.71;80.98
25232;BME280;13176;51.140;6.290;2023-02-20T14:45:28;101509.59;;;11.26;81.87
25232;BME280;13176;51.140;6.290;2023-02-20T14:47:57;101536.53;;;11.38;81.89
25232;BME280;13176;51.140;6.290;2023-02-20T14:50:33;101529.53;;;11.55;81.31
25232;BME280;13176;51.140;6.290;2023-02-20T14:55:28;101539.00;;;11.81;79.85
25232;BME280;13176;51.140;6.290;2023-02-20T14:57:55;101403.41;;;11.14;79.26
25232;BME280;13176;51.140;6.290;2023-02-20T15:00:30;101531.19;;;11.72;80.25
25232;BME280;13176;51.140;6.290;2023-02-20T15:02:57;101379.19;;;10.78;80.87
25232;BME280;13176;51.140;6.290;2023-02-20T15:05:28;101379.25;;;10.69;81.00